Time;durP1;ratioP1;P1;durP2;ratioP2;P2;SDS_P1;SDS_P2;PMS_P1;PMS_P2;Temp;Humidity;BMP_temperature;BMP_pressure;BME280_temperature;BME280_humidity;BME280_pressure;Samples;Min_cycle;Max_cycle;Signal;HPM_P1;HPM_P2
2021/06/04 00:04:39;;;;;;;6.18;5.00;;;;;;;22.52;36.74;101619.22;31409942;28;20037;-65
2021/06/04 00:19:40;;;;;;;6.55;4.55;;;;;;;22.50;36.82;101619.34;31369311;28;20045;-65
2021/06/04 00:34:41;;;;;;;7.25;5.00;;;;;;;22.48;37.13;101609.84;31559839;28;20040;-65
2021/06/04 00:49:42;;;;;;;5.82;4.40;;;;;;;22.45;37.08;101608.31;31615797;28;20032;-64
2021/06/04 01:04:44;;;;;;;5.00;4.30;;;;;;;22.45;37.07;101610.97;31616709;28;20039;-65
2021/06/04 01:19:55;;;;;;;6.10;5.10;;;;;;;22.43;37.02;101606.78;31614641;28;20047;-64
2021/06/04 01:35:02;;;;;;;5.07;4.20;;;;;;;22.41;37.11;101620.13;31480302;28;20040;-65
2021/06/04 01:50:08;;;;;;;5.55;4.60;;;;;;;22.41;37.33;101619.31;31489644;28;20033;-65
2021/06/04 02:05:09;;;;;;;5.18;4.38;;;;;;;22.38;37.25;101615.94;31509194;28;20032;-65
2021/06/04 02:20:19;;;;;;;4.78;4.20;;;;;;;22.37;37.60;101616.91;31507991;28;20053;-65
2021/06/04 02:35:29;;;;;;;5.00;4.18;;;;;;;22.35;37.45;101620.66;31625280;28;20039;-65
2021/06/04 02:50:41;;;;;;;5.82;4.22;;;;;;;22.35;37.63;101596.81;31631396;28;20020;-65
2021/06/04 03:05:42;;;;;;;4.72;4.00;;;;;;;22.35;37.75;101610.06;31639503;28;20090;-64
2021/06/04 03:20:44;;;;;;;5.30;4.32;;;;;;;22.33;37.75;101586.38;31627166;28;20392;-65
2021/06/04 03:35:45;;;;;;;5.50;4.18;;;;;;;22.33;37.80;101583.72;31519282;28;20028;-65
2021/06/04 03:50:47;;;;;;;4.70;4.20;;;;;;;22.32;38.02;101584.69;31498057;28;20035;-65
2021/06/04 04:05:48;;;;;;;5.45;4.10;;;;;;;22.33;37.96;101604.91;31479396;28;20048;-66
2021/06/04 04:20:54;;;;;;;5.03;4.30;;;;;;;22.33;38.10;101580.22;31495053;28;20045;-65
2021/06/04 04:35:55;;;;;;;5.63;4.03;;;;;;;22.33;38.10;101572.28;31582517;28;20032;-64
2021/06/04 04:50:56;;;;;;;4.97;4.35;;;;;;;22.33;38.29;101581.09;31617632;28;20032;-65
2021/06/04 05:05:57;;;;;;;4.93;3.95;;;;;;;22.33;38.41;101615.50;31615736;28;20086;-65
2021/06/04 05:20:58;;;;;;;5.30;4.22;;;;;;;22.31;38.13;101575.06;31614791;28;20422;-64
2021/06/04 05:36:01;;;;;;;6.93;4.63;;;;;;;22.32;38.26;101563.50;31502998;28;20165;-64
2021/06/04 05:51:04;;;;;;;4.80;4.07;;;;;;;22.32;38.39;101576.75;31466385;28;20037;-65
2021/06/04 06:06:06;;;;;;;5.55;4.57;;;;;;;22.33;38.47;101590.81;31466700;28;20041;-64
2021/06/04 06:21:07;;;;;;;9.40;7.38;;;;;;;22.14;41.71;101605.59;31462942;28;20422;-66
2021/06/04 06:36:11;;;;;;;17.63;9.05;;;;;;;21.77;43.50;101618.47;31445591;28;20094;-65
2021/06/04 06:51:12;;;;;;;13.52;8.60;;;;;;;21.71;43.82;101608.38;31469752;28;20085;-66
2021/06/04 07:06:17;;;;;;;15.95;7.68;;;;;;;21.75;43.93;101626.53;31485296;28;20028;-59
2021/06/04 07:21:20;;;;;;;10.38;7.38;;;;;;;22.32;41.75;101610.34;31464516;28;20044;-60
2021/06/04 07:36:28;;;;;;;11.00;6.47;;;;;;;22.53;40.78;101615.59;31474388;28;20032;-62
2021/06/04 07:51:32;;;;;;;8.52;6.50;;;;;;;22.75;40.33;101615.41;31460016;28;20040;-64
2021/06/04 08:06:33;;;;;;;13.75;7.47;;;;;;;22.70;40.69;101630.88;31465883;28;20033;-62
2021/06/04 08:21:37;;;;;;;11.60;7.07;;;;;;;22.77;40.46;101626.69;31473782;28;20044;-63
2021/06/04 08:36:39;;;;;;;10.35;7.10;;;;;;;22.87;40.53;101628.53;31482040;28;20036;-62
2021/06/04 08:51:50;;;;;;;12.52;10.13;;;;;;;22.78;41.10;101612.47;31443210;28;20395;-65
2021/06/04 09:07:01;;;;;;;10.90;7.65;;;;;;;22.53;41.67;101597.88;31478945;28;20028;-65
2021/06/04 09:22:02;;;;;;;10.07;7.70;;;;;;;22.90;40.57;101615.00;31455447;28;20109;-62
2021/06/04 09:37:27;;;;;;;10.20;6.82;;;;;;;22.86;40.55;101622.41;31459220;28;20494;-64
2021/06/04 09:52:34;;;;;;;9.87;7.03;;;;;;;22.96;40.39;101633.88;31452821;28;20413;-65
2021/06/04 10:07:35;;;;;;;9.10;6.57;;;;;;;22.98;40.43;101623.97;31441558;28;20032;-61
2021/06/04 10:22:40;;;;;;;8.70;6.93;;;;;;;23.15;39.89;101616.34;31464746;28;20160;-63
2021/06/04 10:37:59;;;;;;;8.93;6.80;;;;;;;23.48;39.15;101611.63;31474425;28;20107;-62
2021/06/04 10:53:14;;;;;;;8.38;6.93;;;;;;;22.80;40.62;101618.47;31473015;28;20549;-62
2021/06/04 11:08:42;;;;;;;9.88;7.32;;;;;;;22.92;40.28;101605.13;31461629;28;20040;-62
2021/06/04 11:23:48;;;;;;;9.40;7.65;;;;;;;22.10;40.89;101608.63;31481368;28;20036;-63
2021/06/04 11:38:53;;;;;;;7.77;6.67;;;;;;;23.29;38.63;101602.69;31441026;28;20099;-64
2021/06/04 11:53:55;;;;;;;;;;;;;;;23.28;39.24;101603.69;31412147;28;20931;-62
2021/06/04 12:08:57;;;;;;;8.35;7.13;;;;;;;23.74;38.43;101580.94;31482072;28;19986;-60
2021/06/04 12:23:58;;;;;;;10.20;7.00;;;;;;;24.19;37.73;101567.00;31493909;28;20052;-58
2021/06/04 12:39:20;;;;;;;7.97;6.68;;;;;;;24.29;37.72;101550.19;31458069;28;20086;-62
2021/06/04 12:54:24;;;;;;;7.13;6.43;;;;;;;24.00;38.39;101543.97;31442792;28;20028;-60
2021/06/04 13:09:36;;;;;;;9.25;7.35;;;;;;;24.16;38.08;101534.56;31452180;28;20588;-61
2021/06/04 13:24:37;;;;;;;9.68;7.78;;;;;;;24.36;37.60;101522.84;31436148;28;20041;-63
2021/06/04 13:39:38;;;;;;;10.35;7.78;;;;;;;24.44;37.82;101535.41;31439493;28;20040;-62
2021/06/04 13:54:45;;;;;;;9.20;8.13;;;;;;;24.24;37.94;101519.56;31464435;28;20098;-63
2021/06/04 14:09:46;;;;;;;9.98;7.70;;;;;;;23.96;38.87;101496.59;31441410;28;20040;-64
2021/06/04 14:24:49;;;;;;;8.25;6.82;;;;;;;23.82;39.35;101490.81;31447027;28;20579;-64
2021/06/04 14:39:51;;;;;;;8.35;7.20;;;;;;;23.73;39.76;101481.03;31431807;28;20045;-62
2021/06/04 14:54:53;;;;;;;8.73;6.97;;;;;;;23.62;39.83;101467.94;31460132;28;20395;-63
2021/06/04 15:09:55;;;;;;;9.63;7.40;;;;;;;23.52;40.27;101464.44;31465542;28;20032;-62
2021/06/04 15:24:56;;;;;;;8.48;7.38;;;;;;;23.45;40.36;101448.25;31490356;28;20040;-63
2021/06/04 15:39:57;;;;;;;8.30;7.50;;;;;;;23.42;40.91;101449.38;31466890;28;20395;-64
2021/06/04 15:54:58;;;;;;;9.32;8.38;;;;;;;23.41;41.04;101453.03;31457425;28;20028;-62
2021/06/04 16:09:59;;;;;;;13.43;8.65;;;;;;;23.40;41.34;101439.91;31463779;28;20059;-63
2021/06/04 16:25:01;;;;;;;10.38;8.27;;;;;;;23.43;41.53;101434.28;31466219;28;20084;-66
2021/06/04 16:40:03;;;;;;;9.82;8.30;;;;;;;23.41;41.65;101434.47;31439979;28;20391;-66
2021/06/04 16:55:06;;;;;;;12.80;9.98;;;;;;;23.33;44.74;101438.81;31467293;28;20043;-67
2021/06/04 17:10:07;;;;;;;12.40;10.63;;;;;;;23.28;45.17;101436.56;31473591;28;20036;-68
2021/06/04 17:25:10;;;;;;;16.13;10.27;;;;;;;23.17;45.57;101442.88;31493538;28;20045;-68
2021/06/04 17:40:11;;;;;;;11.63;10.07;;;;;;;23.10;46.11;101439.09;31452830;28;20356;-62
2021/06/04 17:55:13;;;;;;;11.30;8.88;;;;;;;23.12;45.22;101455.72;31448049;28;20033;-65
2021/06/04 18:10:14;;;;;;;11.15;9.95;;;;;;;23.10;45.07;101449.72;31369770;28;20392;-64
2021/06/04 18:25:16;;;;;;;10.60;9.50;;;;;;;23.07;44.96;101446.53;31394251;28;20040;-64
2021/06/04 18:40:21;;;;;;;11.43;10.15;;;;;;;22.99;46.06;101440.09;31605504;28;20436;-66
2021/06/04 18:55:25;;;;;;;11.57;9.80;;;;;;;23.00;46.42;101459.50;31532246;28;20086;-64
2021/06/04 19:10:26;;;;;;;11.88;8.93;;;;;;;22.99;46.51;101463.13;31475926;28;20062;-65
2021/06/04 19:25:33;;;;;;;12.88;9.35;;;;;;;23.02;45.82;101481.41;31494207;28;20402;-65
2021/06/04 19:40:34;;;;;;;12.10;9.65;;;;;;;22.97;46.57;101484.41;31463329;28;20090;-63
2021/06/04 19:55:36;;;;;;;14.23;8.93;;;;;;;23.05;46.73;101486.44;31476788;28;20555;-64
2021/06/04 20:10:38;;;;;;;11.30;8.38;;;;;;;22.92;46.40;101476.06;31477957;28;20075;-65
2021/06/04 20:25:41;;;;;;;11.43;9.13;;;;;;;22.99;46.51;101477.19;31465072;28;20063;-64
2021/06/04 20:40:43;;;;;;;10.10;8.15;;;;;;;23.03;46.63;101485.72;31457168;28;20024;-64
2021/06/04 20:55:44;;;;;;;10.02;8.52;;;;;;;23.04;46.66;101483.91;31468175;28;20040;-64
2021/06/04 21:10:45;;;;;;;9.38;8.43;;;;;;;23.06;46.87;101482.78;31442276;28;20029;-65
2021/06/04 21:25:47;;;;;;;9.23;7.85;;;;;;;23.05;46.73;101462.56;31473051;28;20453;-64
2021/06/04 21:40:48;;;;;;;9.75;8.40;;;;;;;23.08;46.46;101474.69;31483868;28;20020;-64
2021/06/04 21:55:49;;;;;;;10.52;9.05;;;;;;;23.02;46.03;101468.16;31440961;28;20110;-63
2021/06/04 22:10:53;;;;;;;12.60;9.13;;;;;;;22.58;45.96;101470.28;31423457;28;20044;-62
2021/06/04 22:25:54;;;;;;;10.18;8.55;;;;;;;22.31;46.51;101458.56;31461442;28;20036;-62
2021/06/04 22:40:55;;;;;;;10.88;9.77;;;;;;;22.32;46.55;101469.97;31444033;28;20041;-63
2021/06/04 22:55:59;;;;;;;10.32;8.30;;;;;;;22.10;46.66;101474.44;31472344;28;20028;-63
2021/06/04 23:11:00;;;;;;;9.02;7.97;;;;;;;21.98;46.71;101469.41;31465311;28;20103;-61
2021/06/04 23:26:02;;;;;;;10.02;7.72;;;;;;;22.14;47.24;101448.56;31480914;28;20068;-61
2021/06/04 23:41:04;;;;;;;9.00;8.10;;;;;;;22.37;46.60;101447.38;31531340;28;20540;-61
2021/06/04 23:56:05;;;;;;;8.35;7.38;;;;;;;22.48;46.23;101429.72;31428603;28;20048;-63
